N658KP KKLS-5S9
Flight info
| Callsign | N658KP |
|---|---|
| Flight time | N/A |
| Altitude | 5000 |
| Route | DCT BTG V448 MULES DCT |
| Aircraft | C310/L-SDFGR/S |
Departure
| Time | 2026-05-07 04:01 |
|---|---|
| Airport | Southwest Washington Regional Airport (KKLS) |
Arrival
| Time | N/A |
|---|---|
| Airport | 5S9 |
| Time | Latitude | Longitude | Altitude | Speed | Heading |
|---|---|---|---|---|---|
| 2026-05-07 03:48 | 46.11951 | -122.89817 | 17 ft | 0 kts | 318° |
| 2026-05-07 03:55 | 46.11952 | -122.89820 | 17 ft | 0 kts | 302° |
| 2026-05-07 03:55 | 46.11954 | -122.89842 | 17 ft | 3 kts | 257° |
| 2026-05-07 03:55 | 46.11929 | -122.89838 | 17 ft | 5 kts | 155° |
| 2026-05-07 03:56 | 46.11881 | -122.89835 | 17 ft | 8 kts | 141° |
| 2026-05-07 03:56 | 46.11829 | -122.89771 | 17 ft | 10 kts | 140° |
| 2026-05-07 03:56 | 46.11762 | -122.89693 | 17 ft | 13 kts | 140° |
| 2026-05-07 03:56 | 46.11684 | -122.89600 | 15 ft | 15 kts | 141° |
| 2026-05-07 03:57 | 46.11593 | -122.89489 | 13 ft | 18 kts | 140° |
| 2026-05-07 03:57 | 46.11491 | -122.89368 | 13 ft | 18 kts | 142° |
| 2026-05-07 03:57 | 46.11390 | -122.89248 | 13 ft | 16 kts | 136° |
| 2026-05-07 03:57 | 46.11364 | -122.89250 | 13 ft | 0 kts | 263° |
| 2026-05-07 04:00 | 46.11360 | -122.89262 | 13 ft | 3 kts | 234° |
| 2026-05-07 04:00 | 46.11356 | -122.89309 | 13 ft | 8 kts | 307° |
| 2026-05-07 04:00 | 46.11538 | -122.89529 | 14 ft | 73 kts | 321° |
| 2026-05-07 04:01 | 46.12067 | -122.90179 | 154 ft | 112 kts | 319° |
| 2026-05-07 04:01 | 46.12707 | -122.91006 | 546 ft | 123 kts | 319° |
| 2026-05-07 04:01 | 46.13186 | -122.92027 | 962 ft | 126 kts | 285° |
| 2026-05-07 04:01 | 46.13037 | -122.93350 | 1314 ft | 134 kts | 239° |
| 2026-05-07 04:02 | 46.12198 | -122.93993 | 1751 ft | 140 kts | 182° |
| 2026-05-07 04:02 | 46.11246 | -122.93347 | 2112 ft | 148 kts | 133° |
| 2026-05-07 04:02 | 46.10635 | -122.92033 | 2511 ft | 149 kts | 122° |
| 2026-05-07 04:02 | 46.10075 | -122.90679 | 2903 ft | 150 kts | 122° |
| 2026-05-07 04:03 | 46.09524 | -122.89342 | 3290 ft | 150 kts | 123° |
| 2026-05-07 04:03 | 46.08851 | -122.88110 | 3679 ft | 149 kts | 137° |
| 2026-05-07 04:03 | 46.08043 | -122.87086 | 4069 ft | 148 kts | 146° |
| 2026-05-07 04:03 | 46.07156 | -122.86170 | 4469 ft | 148 kts | 150° |
| 2026-05-07 04:04 | 46.06256 | -122.85335 | 4860 ft | 148 kts | 153° |
| 2026-05-07 04:04 | 46.05331 | -122.84529 | 4990 ft | 163 kts | 154° |
| 2026-05-07 04:04 | 46.04322 | -122.83671 | 5005 ft | 175 kts | 154° |
| 2026-05-07 04:04 | 46.03260 | -122.82777 | 5006 ft | 183 kts | 154° |
| 2026-05-07 04:05 | 46.02091 | -122.81798 | 5004 ft | 188 kts | 154° |
| 2026-05-07 04:05 | 46.00908 | -122.80809 | 5003 ft | 192 kts | 154° |
| 2026-05-07 04:05 | 45.99747 | -122.79842 | 5002 ft | 194 kts | 154° |
| 2026-05-07 04:05 | 45.98547 | -122.78844 | 5001 ft | 195 kts | 154° |
| 2026-05-07 04:06 | 45.97297 | -122.77805 | 5001 ft | 196 kts | 154° |
| 2026-05-07 04:06 | 45.96052 | -122.76771 | 5000 ft | 197 kts | 154° |
| 2026-05-07 04:06 | 45.94807 | -122.75736 | 5000 ft | 197 kts | 154° |
| 2026-05-07 04:06 | 45.93567 | -122.74709 | 4965 ft | 199 kts | 153° |
| 2026-05-07 04:07 | 45.92366 | -122.73715 | 4990 ft | 198 kts | 153° |
| 2026-05-07 04:07 | 45.91145 | -122.72705 | 4998 ft | 199 kts | 152° |
| 2026-05-07 04:07 | 45.89885 | -122.71658 | 5002 ft | 200 kts | 152° |
| 2026-05-07 04:07 | 45.88630 | -122.70618 | 5000 ft | 201 kts | 152° |
| 2026-05-07 04:08 | 45.87408 | -122.69606 | 5000 ft | 201 kts | 152° |
| 2026-05-07 04:08 | 45.86191 | -122.68599 | 5000 ft | 202 kts | 152° |
| 2026-05-07 04:08 | 45.84946 | -122.67570 | 5000 ft | 202 kts | 152° |
| 2026-05-07 04:08 | 45.83698 | -122.66539 | 5000 ft | 202 kts | 152° |
| 2026-05-07 04:09 | 45.82450 | -122.65507 | 5000 ft | 202 kts | 152° |
| 2026-05-07 04:09 | 45.81216 | -122.64490 | 5008 ft | 202 kts | 152° |
| 2026-05-07 04:09 | 45.79956 | -122.63450 | 5017 ft | 201 kts | 152° |
| 2026-05-07 04:09 | 45.78711 | -122.62424 | 5018 ft | 202 kts | 152° |
| 2026-05-07 04:10 | 45.77445 | -122.61380 | 5018 ft | 202 kts | 152° |
| 2026-05-07 04:10 | 45.76195 | -122.60351 | 5018 ft | 202 kts | 152° |
| 2026-05-07 04:10 | 45.74818 | -122.59595 | 5027 ft | 197 kts | 174° |
| 2026-05-07 04:10 | 45.73409 | -122.59368 | 5020 ft | 196 kts | 181° |
| 2026-05-07 04:11 | 45.72033 | -122.59319 | 5019 ft | 195 kts | 183° |
| 2026-05-07 04:11 | 45.70661 | -122.59323 | 5019 ft | 195 kts | 184° |
| 2026-05-07 04:11 | 45.69289 | -122.59347 | 5018 ft | 194 kts | 184° |
| 2026-05-07 04:11 | 45.67933 | -122.59377 | 5019 ft | 194 kts | 184° |
| 2026-05-07 04:12 | 45.66552 | -122.59409 | 5019 ft | 194 kts | 185° |
| 2026-05-07 04:12 | 45.65194 | -122.59441 | 5019 ft | 194 kts | 185° |
| 2026-05-07 04:12 | 45.63835 | -122.59475 | 5005 ft | 195 kts | 185° |
| 2026-05-07 04:12 | 45.62470 | -122.59510 | 4924 ft | 197 kts | 185° |
| 2026-05-07 04:13 | 45.61042 | -122.59545 | 4780 ft | 199 kts | 185° |
| 2026-05-07 04:13 | 45.59619 | -122.59580 | 4629 ft | 201 kts | 184° |
| 2026-05-07 04:13 | 45.58215 | -122.59615 | 4482 ft | 202 kts | 184° |
| 2026-05-07 04:13 | 45.56732 | -122.59652 | 4325 ft | 202 kts | 184° |
| 2026-05-07 04:14 | 45.55312 | -122.59687 | 4175 ft | 201 kts | 184° |
| 2026-05-07 04:14 | 45.53926 | -122.59721 | 4019 ft | 196 kts | 184° |
| 2026-05-07 04:14 | 45.52571 | -122.59753 | 3866 ft | 193 kts | 184° |
| 2026-05-07 04:14 | 45.51235 | -122.59785 | 3714 ft | 190 kts | 184° |
| 2026-05-07 04:15 | 45.49903 | -122.59818 | 3562 ft | 189 kts | 184° |
| 2026-05-07 04:15 | 45.48596 | -122.59851 | 3412 ft | 188 kts | 184° |
| 2026-05-07 04:15 | 45.47236 | -122.59885 | 3256 ft | 188 kts | 184° |
| 2026-05-07 04:15 | 45.45931 | -122.59560 | 3094 ft | 192 kts | 153° |
| 2026-05-07 04:16 | 45.44823 | -122.58427 | 2947 ft | 192 kts | 136° |
| 2026-05-07 04:16 | 45.43872 | -122.56966 | 2793 ft | 192 kts | 129° |
| 2026-05-07 04:16 | 45.43023 | -122.55449 | 2642 ft | 191 kts | 126° |
| 2026-05-07 04:16 | 45.42214 | -122.53919 | 2491 ft | 191 kts | 125° |
| 2026-05-07 04:17 | 45.41406 | -122.52364 | 2338 ft | 191 kts | 126° |
| 2026-05-07 04:17 | 45.40607 | -122.50819 | 2187 ft | 190 kts | 126° |
| 2026-05-07 04:17 | 45.39807 | -122.49281 | 2037 ft | 190 kts | 124° |
| 2026-05-07 04:17 | 45.39007 | -122.47728 | 1884 ft | 188 kts | 124° |
| 2026-05-07 04:18 | 45.38212 | -122.46188 | 1740 ft | 186 kts | 123° |
| 2026-05-07 04:18 | 45.37450 | -122.44711 | 1702 ft | 176 kts | 123° |
| 2026-05-07 04:18 | 45.36734 | -122.43319 | 1693 ft | 169 kts | 123° |
| 2026-05-07 04:18 | 45.36045 | -122.41984 | 1692 ft | 165 kts | 123° |
| 2026-05-07 04:19 | 45.35366 | -122.40665 | 1697 ft | 164 kts | 124° |
| 2026-05-07 04:19 | 45.34689 | -122.39359 | 1699 ft | 163 kts | 123° |
| 2026-05-07 04:19 | 45.34010 | -122.38051 | 1700 ft | 163 kts | 123° |
| 2026-05-07 04:19 | 45.33336 | -122.36746 | 1699 ft | 163 kts | 123° |
| 2026-05-07 04:20 | 45.32655 | -122.35428 | 1701 ft | 163 kts | 124° |
| 2026-05-07 04:20 | 45.31744 | -122.34460 | 1750 ft | 161 kts | 166° |
| 2026-05-07 04:20 | 45.30595 | -122.34326 | 1749 ft | 156 kts | 180° |
| 2026-05-07 04:21 | 45.28553 | -122.34618 | 1762 ft | 141 kts | 191° |
| 2026-05-07 04:21 | 45.27620 | -122.34523 | 1688 ft | 125 kts | 150° |
| 2026-05-07 04:21 | 45.27217 | -122.33563 | 1551 ft | 110 kts | 80° |
| 2026-05-07 04:21 | 45.27602 | -122.32569 | 1312 ft | 105 kts | 56° |
| 2026-05-07 04:22 | 45.28245 | -122.32021 | 1138 ft | 102 kts | 19° |
| 2026-05-07 04:22 | 45.28962 | -122.31850 | 990 ft | 101 kts | 6° |
| 2026-05-07 04:22 | 45.29698 | -122.31825 | 829 ft | 99 kts | 3° |
| 2026-05-07 04:22 | 45.30367 | -122.31816 | 708 ft | 83 kts | 359° |
| 2026-05-07 04:23 | 45.30750 | -122.31812 | 718 ft | 18 kts | 354° |
| 2026-05-07 04:23 | 45.30856 | -122.31813 | 719 ft | 13 kts | 1° |
| 2026-05-07 04:23 | 45.30950 | -122.31813 | 717 ft | 14 kts | 0° |
| 2026-05-07 04:23 | 45.31032 | -122.31831 | 715 ft | 7 kts | 277° |
| 2026-05-07 04:24 | 45.31020 | -122.31864 | 714 ft | 0 kts | 169° |
| 2026-05-07 04:24 | 45.31016 | -122.31863 | 714 ft | 3 kts | 173° |
| 2026-05-07 04:24 | 45.30993 | -122.31863 | 714 ft | 2 kts | 181° |
| 2026-05-07 04:25 | 45.30949 | -122.31863 | 715 ft | 11 kts | 180° |
| 2026-05-07 04:25 | 45.30852 | -122.31862 | 717 ft | 14 kts | 180° |
| 2026-05-07 04:25 | 45.30761 | -122.31860 | 716 ft | 11 kts | 180° |
| 2026-05-07 04:25 | 45.30728 | -122.31879 | 714 ft | 0 kts | 83° |
| 2026-05-07 04:26 | 45.30728 | -122.31880 | 714 ft | 0 kts | 97° |